Rankin Inlet Airport
CYRT : now visible

Airfield :











YOU CAN JOIN US ON...

 
LOGIN :

Register | Disclaimer

   EN    FR    IT 

 









Legend :    VFR   Marginal VFR   IFR   Intensive IFR   Very Intensive IFR
Visi :
Ceiling :
>= 8 km
>= 3000ft
5 to 8 km
1000 to 3000 ft
1500m to 5 km
500 to 1000 ft
800 to 1500m
200 to 500 ft
< 800m
< 200 ft
Symbols :   Thunderstorms  Fog  Heavy snow  Heavy precipitations  Wind > 20 kt






- Airport Elevation : 94 ft
- IATA code : YRT


CYRT - Rankin Inlet

CURRENT METAR :
  • 150700Z 35013KT 15SM IC BKN056 M28/M32 A2966 RMK SC5 SLP052

EXPIRED METARs :
  • 150600Z 35011KT 15SM IC BKN057 M25/M29 A2967 RMK SC6 SLP053
  • 150500Z 35010KT 15SM IC SCT060 M25/M28 A2966 RMK SC4 SLP050

TAF TAF CYRT
Valid from the 15 at 06:00 until the 15 at 18:00 UTC


150538Z 1506/1518 35010KT P6SM IC FEW015 SCT060
TEMPO 1506/1512 5SM IC BKN015 BKN040
FM151200 35010KT P6SM FEW060 RMK NXT FCST BY 151200Z



MET'MAP, your aeronautical weather chart ! - Copyright ORBIFLY December 2007 - Disclaimer

ORBIFLY MET'MAP TEAM :

Programming & Development : Alexandra Zaïnal
Concept & original design : Baudouin d'Aumeries
Assistance for programming : Marc-Olivier Méhu
Technical & hardware support : Manuel Goepfert

Contact : metmap@orbifly.com




SOURCES & CREDITS :

   NOAA       Earth
Advisory